Terminal Aerodrome Forecast
Issued by NWS Charleston, WV

Current Version | Previous Version | Graphics & Text | Print | Product List | Glossary On
Versions: 1 2 3 4 5 6 7 8 9 10 11 12 13 14 15 16 17 18 19 20 21 22 23 24 25 26 27 28
000
FTUS41 KRLX 290500
TAFPKB
TAF
KPKB 290540Z 2906/3006 00000KT P6SM SCT045
     FM290800 00000KT 5SM BR SCT040
     FM290900 00000KT 1 1/2SM BR SCT040
     FM291000 00000KT 1SM BR SCT050
     FM291200 00000KT 5SM BR SCT050
     FM291300 00000KT P6SM BKN060
     FM291700 30006KT P6SM SCT045
      AMD NOT SKED=

USA.gov is the U.S. government's official web portal to all federal, state and local government web resources and services.